sensor_id;sensor_type;location;lat;lon;timestamp;P1;durP1;ratioP1;P2;durP2;ratioP2
422;SDS011;198;48.752;9.180;2023-03-16T00:02:24;10.50;;;7.27;;
422;SDS011;198;48.752;9.180;2023-03-16T00:04:50;12.63;;;7.77;;
422;SDS011;198;48.752;9.180;2023-03-16T00:07:15;12.13;;;5.90;;
422;SDS011;198;48.752;9.180;2023-03-16T00:09:41;9.53;;;5.10;;
422;SDS011;198;48.752;9.180;2023-03-16T00:12:14;12.03;;;6.43;;
422;SDS011;198;48.752;9.180;2023-03-16T00:14:42;11.73;;;6.50;;
422;SDS011;198;48.752;9.180;2023-03-16T00:17:09;12.57;;;6.60;;
422;SDS011;198;48.752;9.180;2023-03-16T00:19:42;12.27;;;6.30;;
422;SDS011;198;48.752;9.180;2023-03-16T00:22:10;11.97;;;6.27;;
422;SDS011;198;48.752;9.180;2023-03-16T00:24:39;15.83;;;7.53;;
422;SDS011;198;48.752;9.180;2023-03-16T00:27:08;11.93;;;5.40;;
422;SDS011;198;48.752;9.180;2023-03-16T00:29:39;10.63;;;5.77;;
422;SDS011;198;48.752;9.180;2023-03-16T00:32:11;12.57;;;6.17;;
422;SDS011;198;48.752;9.180;2023-03-16T00:34:44;14.10;;;6.87;;
422;SDS011;198;48.752;9.180;2023-03-16T00:37:11;7.80;;;4.90;;
422;SDS011;198;48.752;9.180;2023-03-16T00:39:43;11.03;;;6.27;;
422;SDS011;198;48.752;9.180;2023-03-16T00:42:10;12.37;;;5.47;;
422;SDS011;198;48.752;9.180;2023-03-16T00:44:36;8.60;;;5.00;;
422;SDS011;198;48.752;9.180;2023-03-16T00:47:03;12.10;;;6.07;;
422;SDS011;198;48.752;9.180;2023-03-16T00:49:29;13.13;;;6.27;;
422;SDS011;198;48.752;9.180;2023-03-16T00:51:58;8.73;;;5.27;;
422;SDS011;198;48.752;9.180;2023-03-16T00:54:25;10.60;;;5.33;;
422;SDS011;198;48.752;9.180;2023-03-16T00:56:51;11.63;;;5.07;;
422;SDS011;198;48.752;9.180;2023-03-16T00:59:16;11.33;;;4.73;;
422;SDS011;198;48.752;9.180;2023-03-16T01:01:44;6.97;;;5.17;;
422;SDS011;198;48.752;9.180;2023-03-16T01:04:10;7.77;;;4.93;;
422;SDS011;198;48.752;9.180;2023-03-16T01:06:36;8.30;;;3.57;;
422;SDS011;198;48.752;9.180;2023-03-16T01:09:02;12.70;;;5.40;;
422;SDS011;198;48.752;9.180;2023-03-16T01:11:29;9.80;;;3.93;;
422;SDS011;198;48.752;9.180;2023-03-16T01:13:57;6.80;;;3.60;;
422;SDS011;198;48.752;9.180;2023-03-16T01:16:23;9.43;;;3.90;;
422;SDS011;198;48.752;9.180;2023-03-16T01:18:49;9.43;;;4.03;;
422;SDS011;198;48.752;9.180;2023-03-16T01:21:16;9.27;;;3.93;;
422;SDS011;198;48.752;9.180;2023-03-16T01:23:42;10.37;;;5.10;;
422;SDS011;198;48.752;9.180;2023-03-16T01:26:08;8.67;;;6.10;;
422;SDS011;198;48.752;9.180;2023-03-16T01:28:34;11.67;;;5.60;;
422;SDS011;198;48.752;9.180;2023-03-16T01:31:01;15.93;;;7.13;;
422;SDS011;198;48.752;9.180;2023-03-16T01:33:32;16.47;;;8.47;;
422;SDS011;198;48.752;9.180;2023-03-16T01:36:02;17.40;;;8.50;;
422;SDS011;198;48.752;9.180;2023-03-16T01:38:28;24.13;;;9.23;;
422;SDS011;198;48.752;9.180;2023-03-16T01:40:54;17.90;;;8.93;;
422;SDS011;198;48.752;9.180;2023-03-16T01:43:21;16.57;;;9.20;;
422;SDS011;198;48.752;9.180;2023-03-16T01:48:30;19.17;;;9.70;;
422;SDS011;198;48.752;9.180;2023-03-16T01:51:13;21.13;;;8.87;;
422;SDS011;198;48.752;9.180;2023-03-16T01:53:48;23.57;;;11.10;;
422;SDS011;198;48.752;9.180;2023-03-16T01:56:17;22.20;;;10.70;;
422;SDS011;198;48.752;9.180;2023-03-16T01:58:47;26.47;;;10.80;;
422;SDS011;198;48.752;9.180;2023-03-16T02:01:15;32.07;;;12.33;;
422;SDS011;198;48.752;9.180;2023-03-16T02:03:42;21.40;;;10.67;;
422;SDS011;198;48.752;9.180;2023-03-16T02:06:13;21.43;;;10.10;;
422;SDS011;198;48.752;9.180;2023-03-16T02:08:42;33.27;;;10.67;;
422;SDS011;198;48.752;9.180;2023-03-16T02:11:09;26.50;;;12.90;;
422;SDS011;198;48.752;9.180;2023-03-16T02:13:36;24.10;;;11.40;;
422;SDS011;198;48.752;9.180;2023-03-16T02:16:02;23.00;;;9.93;;
422;SDS011;198;48.752;9.180;2023-03-16T02:18:30;23.13;;;10.70;;
422;SDS011;198;48.752;9.180;2023-03-16T02:21:00;16.80;;;8.30;;
422;SDS011;198;48.752;9.180;2023-03-16T02:23:33;20.17;;;10.27;;
422;SDS011;198;48.752;9.180;2023-03-16T02:26:16;24.77;;;10.10;;
422;SDS011;198;48.752;9.180;2023-03-16T02:31:33;18.67;;;8.80;;
422;SDS011;198;48.752;9.180;2023-03-16T02:33:59;33.23;;;7.93;;
422;SDS011;198;48.752;9.180;2023-03-16T02:36:25;16.60;;;8.13;;
422;SDS011;198;48.752;9.180;2023-03-16T02:38:52;20.37;;;8.50;;
422;SDS011;198;48.752;9.180;2023-03-16T02:41:18;22.83;;;8.27;;
422;SDS011;198;48.752;9.180;2023-03-16T02:43:49;17.70;;;7.97;;
422;SDS011;198;48.752;9.180;2023-03-16T02:46:24;16.67;;;7.23;;
422;SDS011;198;48.752;9.180;2023-03-16T02:49:06;15.73;;;8.20;;
422;SDS011;198;48.752;9.180;2023-03-16T02:51:43;19.20;;;8.53;;
422;SDS011;198;48.752;9.180;2023-03-16T02:54:10;22.60;;;7.90;;
422;SDS011;198;48.752;9.180;2023-03-16T02:56:35;17.80;;;9.27;;
422;SDS011;198;48.752;9.180;2023-03-16T02:59:01;16.50;;;8.23;;
422;SDS011;198;48.752;9.180;2023-03-16T03:01:26;17.53;;;8.57;;
422;SDS011;198;48.752;9.180;2023-03-16T03:03:52;18.73;;;7.33;;
422;SDS011;198;48.752;9.180;2023-03-16T03:06:17;28.83;;;8.70;;
422;SDS011;198;48.752;9.180;2023-03-16T03:08:43;17.77;;;9.37;;
422;SDS011;198;48.752;9.180;2023-03-16T03:11:08;22.33;;;10.20;;
422;SDS011;198;48.752;9.180;2023-03-16T03:13:34;21.30;;;9.00;;
422;SDS011;198;48.752;9.180;2023-03-16T03:16:02;22.70;;;9.57;;
422;SDS011;198;48.752;9.180;2023-03-16T03:18:27;23.53;;;10.60;;
422;SDS011;198;48.752;9.180;2023-03-16T03:20:53;25.07;;;9.53;;
422;SDS011;198;48.752;9.180;2023-03-16T03:23:19;22.53;;;9.87;;
422;SDS011;198;48.752;9.180;2023-03-16T03:25:44;25.87;;;11.90;;
422;SDS011;198;48.752;9.180;2023-03-16T03:28:11;19.50;;;9.07;;
422;SDS011;198;48.752;9.180;2023-03-16T03:30:37;21.43;;;9.80;;
422;SDS011;198;48.752;9.180;2023-03-16T03:33:03;20.60;;;9.57;;
422;SDS011;198;48.752;9.180;2023-03-16T03:35:28;21.63;;;9.37;;
422;SDS011;198;48.752;9.180;2023-03-16T03:37:54;26.13;;;10.97;;
422;SDS011;198;48.752;9.180;2023-03-16T03:40:20;19.47;;;10.37;;
422;SDS011;198;48.752;9.180;2023-03-16T03:42:45;22.80;;;10.20;;
422;SDS011;198;48.752;9.180;2023-03-16T03:45:11;22.13;;;9.87;;
422;SDS011;198;48.752;9.180;2023-03-16T03:47:38;17.23;;;8.10;;
422;SDS011;198;48.752;9.180;2023-03-16T03:50:04;22.07;;;11.00;;
422;SDS011;198;48.752;9.180;2023-03-16T03:52:30;19.17;;;8.53;;
422;SDS011;198;48.752;9.180;2023-03-16T03:54:56;24.20;;;8.87;;
422;SDS011;198;48.752;9.180;2023-03-16T03:57:22;18.73;;;9.13;;
422;SDS011;198;48.752;9.180;2023-03-16T03:59:47;26.40;;;9.40;;
422;SDS011;198;48.752;9.180;2023-03-16T04:02:13;14.83;;;9.10;;
422;SDS011;198;48.752;9.180;2023-03-16T04:04:39;23.90;;;9.50;;
422;SDS011;198;48.752;9.180;2023-03-16T04:07:06;22.40;;;9.37;;
422;SDS011;198;48.752;9.180;2023-03-16T04:09:31;20.93;;;10.13;;
422;SDS011;198;48.752;9.180;2023-03-16T04:12:00;21.27;;;8.97;;
422;SDS011;198;48.752;9.180;2023-03-16T04:14:27;19.10;;;8.60;;
422;SDS011;198;48.752;9.180;2023-03-16T04:16:53;21.83;;;9.13;;
422;SDS011;198;48.752;9.180;2023-03-16T04:19:18;19.97;;;8.77;;
422;SDS011;198;48.752;9.180;2023-03-16T04:21:45;21.37;;;9.97;;
422;SDS011;198;48.752;9.180;2023-03-16T04:24:10;23.67;;;9.10;;
422;SDS011;198;48.752;9.180;2023-03-16T04:26:38;15.97;;;8.97;;
422;SDS011;198;48.752;9.180;2023-03-16T04:29:04;31.20;;;10.57;;
422;SDS011;198;48.752;9.180;2023-03-16T04:31:30;18.80;;;8.23;;
422;SDS011;198;48.752;9.180;2023-03-16T04:33:56;25.97;;;8.53;;
422;SDS011;198;48.752;9.180;2023-03-16T04:36:21;23.13;;;9.60;;
422;SDS011;198;48.752;9.180;2023-03-16T04:38:50;19.77;;;9.37;;
422;SDS011;198;48.752;9.180;2023-03-16T04:41:15;23.07;;;9.80;;
422;SDS011;198;48.752;9.180;2023-03-16T04:43:42;23.10;;;10.10;;
422;SDS011;198;48.752;9.180;2023-03-16T04:46:08;19.13;;;9.90;;
422;SDS011;198;48.752;9.180;2023-03-16T04:48:34;20.70;;;8.40;;
422;SDS011;198;48.752;9.180;2023-03-16T04:51:01;42.20;;;9.63;;
422;SDS011;198;48.752;9.180;2023-03-16T04:53:27;24.27;;;11.73;;
422;SDS011;198;48.752;9.180;2023-03-16T04:55:54;23.27;;;9.53;;
422;SDS011;198;48.752;9.180;2023-03-16T04:58:19;31.93;;;11.37;;
422;SDS011;198;48.752;9.180;2023-03-16T05:00:46;25.70;;;11.40;;
422;SDS011;198;48.752;9.180;2023-03-16T05:03:12;23.87;;;10.40;;
422;SDS011;198;48.752;9.180;2023-03-16T05:05:38;33.67;;;10.63;;
422;SDS011;198;48.752;9.180;2023-03-16T05:08:04;26.70;;;9.93;;
422;SDS011;198;48.752;9.180;2023-03-16T05:10:31;21.37;;;9.07;;
422;SDS011;198;48.752;9.180;2023-03-16T05:12:57;20.73;;;10.03;;
422;SDS011;198;48.752;9.180;2023-03-16T05:15:23;21.87;;;9.33;;
422;SDS011;198;48.752;9.180;2023-03-16T05:17:49;23.90;;;9.43;;
422;SDS011;198;48.752;9.180;2023-03-16T05:20:15;23.90;;;8.40;;
422;SDS011;198;48.752;9.180;2023-03-16T05:22:42;21.33;;;9.00;;
422;SDS011;198;48.752;9.180;2023-03-16T05:25:09;16.97;;;7.97;;
422;SDS011;198;48.752;9.180;2023-03-16T05:27:42;21.17;;;7.93;;
422;SDS011;198;48.752;9.180;2023-03-16T05:30:09;16.70;;;7.37;;
422;SDS011;198;48.752;9.180;2023-03-16T05:32:35;17.83;;;8.83;;
422;SDS011;198;48.752;9.180;2023-03-16T05:35:02;18.93;;;8.77;;
422;SDS011;198;48.752;9.180;2023-03-16T05:37:28;17.03;;;9.23;;
422;SDS011;198;48.752;9.180;2023-03-16T05:39:53;25.30;;;10.27;;
422;SDS011;198;48.752;9.180;2023-03-16T05:42:21;21.53;;;9.70;;
422;SDS011;198;48.752;9.180;2023-03-16T05:44:47;23.43;;;9.77;;
422;SDS011;198;48.752;9.180;2023-03-16T05:47:13;19.00;;;9.43;;
422;SDS011;198;48.752;9.180;2023-03-16T05:49:38;22.77;;;8.87;;
422;SDS011;198;48.752;9.180;2023-03-16T05:52:04;18.83;;;8.20;;
422;SDS011;198;48.752;9.180;2023-03-16T05:54:29;25.97;;;10.60;;
422;SDS011;198;48.752;9.180;2023-03-16T05:56:55;19.20;;;7.57;;
422;SDS011;198;48.752;9.180;2023-03-16T05:59:20;21.70;;;10.03;;
422;SDS011;198;48.752;9.180;2023-03-16T06:01:46;28.53;;;10.20;;
422;SDS011;198;48.752;9.180;2023-03-16T06:04:13;20.07;;;9.50;;
422;SDS011;198;48.752;9.180;2023-03-16T06:06:39;25.17;;;10.10;;
422;SDS011;198;48.752;9.180;2023-03-16T06:09:04;23.33;;;9.47;;
422;SDS011;198;48.752;9.180;2023-03-16T06:11:30;24.70;;;10.70;;
422;SDS011;198;48.752;9.180;2023-03-16T06:13:56;20.57;;;9.53;;
422;SDS011;198;48.752;9.180;2023-03-16T06:16:22;24.43;;;9.97;;
422;SDS011;198;48.752;9.180;2023-03-16T06:18:48;21.60;;;10.77;;
422;SDS011;198;48.752;9.180;2023-03-16T06:21:14;24.77;;;10.43;;
422;SDS011;198;48.752;9.180;2023-03-16T06:23:39;29.57;;;9.83;;
422;SDS011;198;48.752;9.180;2023-03-16T06:26:05;29.93;;;9.80;;
422;SDS011;198;48.752;9.180;2023-03-16T06:28:30;21.13;;;9.60;;
422;SDS011;198;48.752;9.180;2023-03-16T06:30:56;25.37;;;10.20;;
422;SDS011;198;48.752;9.180;2023-03-16T06:33:22;19.10;;;8.80;;
422;SDS011;198;48.752;9.180;2023-03-16T06:35:48;25.50;;;10.43;;
422;SDS011;198;48.752;9.180;2023-03-16T06:38:15;26.40;;;9.70;;
422;SDS011;198;48.752;9.180;2023-03-16T06:40:41;26.43;;;11.33;;
422;SDS011;198;48.752;9.180;2023-03-16T06:43:06;19.27;;;8.30;;
422;SDS011;198;48.752;9.180;2023-03-16T06:45:32;23.47;;;10.30;;
422;SDS011;198;48.752;9.180;2023-03-16T06:47:58;17.40;;;8.20;;
422;SDS011;198;48.752;9.180;2023-03-16T06:50:23;19.93;;;9.33;;
422;SDS011;198;48.752;9.180;2023-03-16T06:52:49;31.13;;;9.50;;
422;SDS011;198;48.752;9.180;2023-03-16T06:55:15;18.53;;;8.40;;
422;SDS011;198;48.752;9.180;2023-03-16T06:57:41;23.20;;;9.50;;
422;SDS011;198;48.752;9.180;2023-03-16T07:00:07;20.90;;;11.00;;
422;SDS011;198;48.752;9.180;2023-03-16T07:02:35;24.30;;;9.07;;
422;SDS011;198;48.752;9.180;2023-03-16T07:05:03;25.90;;;10.50;;
422;SDS011;198;48.752;9.180;2023-03-16T07:07:29;21.20;;;8.57;;
422;SDS011;198;48.752;9.180;2023-03-16T07:09:55;20.70;;;8.70;;
422;SDS011;198;48.752;9.180;2023-03-16T07:12:20;19.83;;;8.50;;
422;SDS011;198;48.752;9.180;2023-03-16T07:14:46;29.17;;;8.80;;
422;SDS011;198;48.752;9.180;2023-03-16T07:17:11;19.10;;;8.17;;
422;SDS011;198;48.752;9.180;2023-03-16T07:19:37;20.90;;;8.63;;
422;SDS011;198;48.752;9.180;2023-03-16T07:22:02;18.90;;;7.97;;
422;SDS011;198;48.752;9.180;2023-03-16T07:24:28;17.10;;;8.60;;
422;SDS011;198;48.752;9.180;2023-03-16T07:26:54;19.73;;;8.13;;
422;SDS011;198;48.752;9.180;2023-03-16T07:29:20;19.07;;;8.70;;
422;SDS011;198;48.752;9.180;2023-03-16T07:31:45;15.50;;;7.03;;
422;SDS011;198;48.752;9.180;2023-03-16T07:34:11;21.47;;;7.80;;
422;SDS011;198;48.752;9.180;2023-03-16T07:36:36;19.23;;;9.10;;
422;SDS011;198;48.752;9.180;2023-03-16T07:39:02;23.20;;;9.00;;
422;SDS011;198;48.752;9.180;2023-03-16T07:41:30;15.60;;;7.40;;
422;SDS011;198;48.752;9.180;2023-03-16T07:43:56;19.13;;;6.20;;
422;SDS011;198;48.752;9.180;2023-03-16T07:46:22;15.97;;;7.00;;
422;SDS011;198;48.752;9.180;2023-03-16T07:48:48;12.53;;;6.60;;
422;SDS011;198;48.752;9.180;2023-03-16T07:51:13;13.37;;;6.90;;
422;SDS011;198;48.752;9.180;2023-03-16T07:53:39;18.40;;;7.40;;
422;SDS011;198;48.752;9.180;2023-03-16T07:56:06;15.00;;;5.83;;
422;SDS011;198;48.752;9.180;2023-03-16T07:58:32;10.70;;;6.00;;
422;SDS011;198;48.752;9.180;2023-03-16T08:00:58;14.87;;;6.30;;
422;SDS011;198;48.752;9.180;2023-03-16T08:03:26;10.57;;;5.90;;
422;SDS011;198;48.752;9.180;2023-03-16T08:05:52;15.27;;;6.97;;
422;SDS011;198;48.752;9.180;2023-03-16T08:08:18;17.83;;;6.40;;
422;SDS011;198;48.752;9.180;2023-03-16T08:10:46;16.23;;;6.27;;
422;SDS011;198;48.752;9.180;2023-03-16T08:13:12;16.83;;;5.80;;
422;SDS011;198;48.752;9.180;2023-03-16T08:15:38;11.70;;;6.30;;
422;SDS011;198;48.752;9.180;2023-03-16T08:18:04;13.70;;;6.57;;
422;SDS011;198;48.752;9.180;2023-03-16T08:20:31;14.90;;;6.17;;
422;SDS011;198;48.752;9.180;2023-03-16T08:22:57;13.13;;;6.30;;
422;SDS011;198;48.752;9.180;2023-03-16T08:25:23;17.73;;;5.27;;
422;SDS011;198;48.752;9.180;2023-03-16T08:27:49;15.37;;;6.70;;
422;SDS011;198;48.752;9.180;2023-03-16T08:30:14;13.13;;;6.13;;
422;SDS011;198;48.752;9.180;2023-03-16T08:32:40;13.20;;;5.57;;
422;SDS011;198;48.752;9.180;2023-03-16T08:35:10;11.60;;;4.90;;
422;SDS011;198;48.752;9.180;2023-03-16T08:37:40;19.57;;;6.27;;
422;SDS011;198;48.752;9.180;2023-03-16T08:40:07;10.57;;;5.30;;
422;SDS011;198;48.752;9.180;2023-03-16T08:42:44;8.37;;;5.17;;
422;SDS011;198;48.752;9.180;2023-03-16T08:45:10;9.53;;;5.03;;
422;SDS011;198;48.752;9.180;2023-03-16T08:47:36;14.60;;;6.23;;
422;SDS011;198;48.752;9.180;2023-03-16T08:50:04;9.43;;;4.67;;
422;SDS011;198;48.752;9.180;2023-03-16T08:52:31;9.63;;;5.83;;
422;SDS011;198;48.752;9.180;2023-03-16T08:55:00;9.97;;;4.20;;
422;SDS011;198;48.752;9.180;2023-03-16T08:57:29;9.20;;;5.30;;
422;SDS011;198;48.752;9.180;2023-03-16T08:59:56;8.67;;;5.10;;
422;SDS011;198;48.752;9.180;2023-03-16T09:02:22;9.07;;;4.90;;
422;SDS011;198;48.752;9.180;2023-03-16T09:04:48;15.07;;;4.10;;
422;SDS011;198;48.752;9.180;2023-03-16T09:07:14;12.20;;;4.17;;
422;SDS011;198;48.752;9.180;2023-03-16T09:09:39;10.83;;;4.73;;
422;SDS011;198;48.752;9.180;2023-03-16T09:12:05;9.00;;;4.07;;
422;SDS011;198;48.752;9.180;2023-03-16T09:14:31;8.17;;;4.70;;
422;SDS011;198;48.752;9.180;2023-03-16T09:16:57;9.07;;;4.10;;
422;SDS011;198;48.752;9.180;2023-03-16T09:19:23;5.23;;;3.33;;
422;SDS011;198;48.752;9.180;2023-03-16T09:21:49;9.00;;;3.63;;
422;SDS011;198;48.752;9.180;2023-03-16T09:24:15;6.50;;;3.93;;
422;SDS011;198;48.752;9.180;2023-03-16T09:26:41;4.47;;;3.30;;
422;SDS011;198;48.752;9.180;2023-03-16T09:29:07;7.80;;;3.90;;
422;SDS011;198;48.752;9.180;2023-03-16T09:31:33;6.17;;;4.13;;
422;SDS011;198;48.752;9.180;2023-03-16T09:34:00;10.30;;;4.97;;
422;SDS011;198;48.752;9.180;2023-03-16T09:36:25;8.50;;;4.37;;
422;SDS011;198;48.752;9.180;2023-03-16T09:38:51;10.70;;;5.13;;
422;SDS011;198;48.752;9.180;2023-03-16T09:41:38;6.53;;;3.73;;
422;SDS011;198;48.752;9.180;2023-03-16T09:46:46;5.87;;;3.90;;
422;SDS011;198;48.752;9.180;2023-03-16T09:49:15;8.00;;;4.13;;
422;SDS011;198;48.752;9.180;2023-03-16T09:54:35;8.47;;;4.00;;
422;SDS011;198;48.752;9.180;2023-03-16T09:57:18;7.17;;;4.03;;
422;SDS011;198;48.752;9.180;2023-03-16T10:00:09;6.90;;;3.57;;
422;SDS011;198;48.752;9.180;2023-03-16T10:05:22;7.50;;;3.70;;
422;SDS011;198;48.752;9.180;2023-03-16T10:07:51;7.93;;;4.67;;
422;SDS011;198;48.752;9.180;2023-03-16T10:16:22;8.20;;;4.00;;
422;SDS011;198;48.752;9.180;2023-03-16T10:19:07;8.30;;;4.77;;
422;SDS011;198;48.752;9.180;2023-03-16T10:21:56;7.10;;;4.80;;
422;SDS011;198;48.752;9.180;2023-03-16T10:24:32;8.00;;;4.23;;
422;SDS011;198;48.752;9.180;2023-03-16T10:27:06;8.03;;;4.90;;
422;SDS011;198;48.752;9.180;2023-03-16T10:29:44;7.63;;;4.43;;
422;SDS011;198;48.752;9.180;2023-03-16T10:32:11;7.30;;;4.10;;
422;SDS011;198;48.752;9.180;2023-03-16T10:34:39;8.40;;;3.83;;
422;SDS011;198;48.752;9.180;2023-03-16T10:37:05;5.30;;;3.60;;
422;SDS011;198;48.752;9.180;2023-03-16T10:39:37;11.13;;;3.50;;
422;SDS011;198;48.752;9.180;2023-03-16T10:42:11;6.47;;;4.00;;
422;SDS011;198;48.752;9.180;2023-03-16T10:44:40;5.70;;;3.10;;
422;SDS011;198;48.752;9.180;2023-03-16T10:47:06;4.87;;;3.27;;
422;SDS011;198;48.752;9.180;2023-03-16T10:49:41;7.20;;;3.90;;
422;SDS011;198;48.752;9.180;2023-03-16T10:54:38;4.60;;;3.10;;
422;SDS011;198;48.752;9.180;2023-03-16T10:57:24;4.00;;;2.50;;
422;SDS011;198;48.752;9.180;2023-03-16T10:59:58;5.90;;;2.80;;
422;SDS011;198;48.752;9.180;2023-03-16T11:02:32;3.67;;;2.60;;
422;SDS011;198;48.752;9.180;2023-03-16T11:05:10;5.00;;;3.43;;
422;SDS011;198;48.752;9.180;2023-03-16T11:08:18;4.33;;;2.27;;
422;SDS011;198;48.752;9.180;2023-03-16T11:10:53;4.00;;;2.60;;
422;SDS011;198;48.752;9.180;2023-03-16T11:13:23;4.13;;;2.30;;
422;SDS011;198;48.752;9.180;2023-03-16T11:15:55;3.50;;;2.57;;
422;SDS011;198;48.752;9.180;2023-03-16T11:18:37;5.47;;;2.67;;
422;SDS011;198;48.752;9.180;2023-03-16T11:21:12;3.73;;;1.90;;
422;SDS011;198;48.752;9.180;2023-03-16T11:24:03;8.50;;;2.83;;
422;SDS011;198;48.752;9.180;2023-03-16T11:26:35;3.03;;;1.90;;
422;SDS011;198;48.752;9.180;2023-03-16T11:29:08;5.17;;;2.90;;
422;SDS011;198;48.752;9.180;2023-03-16T11:31:41;7.43;;;2.43;;
422;SDS011;198;48.752;9.180;2023-03-16T11:34:15;10.13;;;2.87;;
422;SDS011;198;48.752;9.180;2023-03-16T11:36:45;5.90;;;2.50;;
422;SDS011;198;48.752;9.180;2023-03-16T11:44:52;3.30;;;1.97;;
422;SDS011;198;48.752;9.180;2023-03-16T11:47:33;4.47;;;2.10;;
422;SDS011;198;48.752;9.180;2023-03-16T11:50:16;3.90;;;1.80;;
422;SDS011;198;48.752;9.180;2023-03-16T11:55:38;4.70;;;2.03;;
422;SDS011;198;48.752;9.180;2023-03-16T11:58:33;3.07;;;1.80;;
422;SDS011;198;48.752;9.180;2023-03-16T12:01:11;6.73;;;2.47;;
422;SDS011;198;48.752;9.180;2023-03-16T12:15:23;4.10;;;2.40;;
422;SDS011;198;48.752;9.180;2023-03-16T12:17:52;6.40;;;2.60;;
422;SDS011;198;48.752;9.180;2023-03-16T12:20:26;5.93;;;2.80;;
422;SDS011;198;48.752;9.180;2023-03-16T12:23:01;3.30;;;2.20;;
422;SDS011;198;48.752;9.180;2023-03-16T12:25:39;2.67;;;2.40;;
422;SDS011;198;48.752;9.180;2023-03-16T12:28:12;2.63;;;2.43;;
422;SDS011;198;48.752;9.180;2023-03-16T12:30:52;4.17;;;3.10;;
422;SDS011;198;48.752;9.180;2023-03-16T12:33:35;4.83;;;2.50;;
422;SDS011;198;48.752;9.180;2023-03-16T12:39:46;3.73;;;2.30;;
422;SDS011;198;48.752;9.180;2023-03-16T12:45:09;8.93;;;3.47;;
422;SDS011;198;48.752;9.180;2023-03-16T12:48:18;5.23;;;2.47;;
422;SDS011;198;48.752;9.180;2023-03-16T12:50:58;5.97;;;2.60;;
422;SDS011;198;48.752;9.180;2023-03-16T12:53:28;3.20;;;2.50;;
422;SDS011;198;48.752;9.180;2023-03-16T12:56:08;5.10;;;2.97;;
422;SDS011;198;48.752;9.180;2023-03-16T12:58:44;4.00;;;2.33;;
422;SDS011;198;48.752;9.180;2023-03-16T13:01:11;4.20;;;2.97;;
422;SDS011;198;48.752;9.180;2023-03-16T13:03:40;5.67;;;2.50;;
422;SDS011;198;48.752;9.180;2023-03-16T13:06:15;4.73;;;3.00;;
422;SDS011;198;48.752;9.180;2023-03-16T13:08:55;4.93;;;2.80;;
422;SDS011;198;48.752;9.180;2023-03-16T13:11:23;4.07;;;2.30;;
422;SDS011;198;48.752;9.180;2023-03-16T13:13:51;14.03;;;2.87;;
422;SDS011;198;48.752;9.180;2023-03-16T13:16:29;3.67;;;2.50;;
422;SDS011;198;48.752;9.180;2023-03-16T13:18:57;2.63;;;2.20;;
422;SDS011;198;48.752;9.180;2023-03-16T13:21:33;4.80;;;2.37;;
422;SDS011;198;48.752;9.180;2023-03-16T13:26:53;2.40;;;1.90;;
422;SDS011;198;48.752;9.180;2023-03-16T13:29:30;2.03;;;1.93;;
422;SDS011;198;48.752;9.180;2023-03-16T13:31:57;11.17;;;2.73;;
422;SDS011;198;48.752;9.180;2023-03-16T13:34:30;3.73;;;1.77;;
422;SDS011;198;48.752;9.180;2023-03-16T13:37:11;3.37;;;2.30;;
422;SDS011;198;48.752;9.180;2023-03-16T13:39:38;2.60;;;2.20;;
422;SDS011;198;48.752;9.180;2023-03-16T13:44:33;4.20;;;2.50;;
422;SDS011;198;48.752;9.180;2023-03-16T13:47:03;4.83;;;2.17;;
422;SDS011;198;48.752;9.180;2023-03-16T13:49:29;2.30;;;1.80;;
422;SDS011;198;48.752;9.180;2023-03-16T13:51:55;4.00;;;1.87;;
422;SDS011;198;48.752;9.180;2023-03-16T13:54:25;3.00;;;1.73;;
422;SDS011;198;48.752;9.180;2023-03-16T13:56:54;4.73;;;2.13;;
422;SDS011;198;48.752;9.180;2023-03-16T13:59:22;7.13;;;2.37;;
422;SDS011;198;48.752;9.180;2023-03-16T14:01:53;2.23;;;1.57;;
422;SDS011;198;48.752;9.180;2023-03-16T14:04:24;2.80;;;1.90;;
422;SDS011;198;48.752;9.180;2023-03-16T14:07:02;5.77;;;1.90;;
422;SDS011;198;48.752;9.180;2023-03-16T14:09:30;4.53;;;1.80;;
422;SDS011;198;48.752;9.180;2023-03-16T14:11:59;2.33;;;1.80;;
422;SDS011;198;48.752;9.180;2023-03-16T14:14:29;2.10;;;1.60;;
422;SDS011;198;48.752;9.180;2023-03-16T14:17:02;3.43;;;2.10;;
422;SDS011;198;48.752;9.180;2023-03-16T14:19:37;3.00;;;1.80;;
422;SDS011;198;48.752;9.180;2023-03-16T14:22:13;2.70;;;1.80;;
422;SDS011;198;48.752;9.180;2023-03-16T14:24:45;2.10;;;1.73;;
422;SDS011;198;48.752;9.180;2023-03-16T14:29:52;2.70;;;2.03;;
422;SDS011;198;48.752;9.180;2023-03-16T14:32:24;2.23;;;2.03;;
422;SDS011;198;48.752;9.180;2023-03-16T14:35:02;9.20;;;1.93;;
422;SDS011;198;48.752;9.180;2023-03-16T14:37:38;1.90;;;1.50;;
422;SDS011;198;48.752;9.180;2023-03-16T14:40:06;7.87;;;1.87;;
422;SDS011;198;48.752;9.180;2023-03-16T14:42:54;1.73;;;1.63;;
422;SDS011;198;48.752;9.180;2023-03-16T14:45:24;2.33;;;1.70;;
422;SDS011;198;48.752;9.180;2023-03-16T14:47:53;2.50;;;1.77;;
422;SDS011;198;48.752;9.180;2023-03-16T14:50:24;2.60;;;1.63;;
422;SDS011;198;48.752;9.180;2023-03-16T14:52:50;4.60;;;1.87;;
422;SDS011;198;48.752;9.180;2023-03-16T14:55:19;2.93;;;1.80;;
422;SDS011;198;48.752;9.180;2023-03-16T14:57:46;3.60;;;2.23;;
422;SDS011;198;48.752;9.180;2023-03-16T15:00:14;2.33;;;1.63;;
422;SDS011;198;48.752;9.180;2023-03-16T15:02:42;1.90;;;1.70;;
422;SDS011;198;48.752;9.180;2023-03-16T15:05:11;3.70;;;1.80;;
422;SDS011;198;48.752;9.180;2023-03-16T15:07:47;2.97;;;1.90;;
422;SDS011;198;48.752;9.180;2023-03-16T15:10:20;2.30;;;1.80;;
422;SDS011;198;48.752;9.180;2023-03-16T15:12:51;4.47;;;2.10;;
422;SDS011;198;48.752;9.180;2023-03-16T15:15:28;3.30;;;1.70;;
422;SDS011;198;48.752;9.180;2023-03-16T15:17:54;2.73;;;1.50;;
422;SDS011;198;48.752;9.180;2023-03-16T15:20:21;3.10;;;1.97;;
422;SDS011;198;48.752;9.180;2023-03-16T15:22:51;2.27;;;1.23;;
422;SDS011;198;48.752;9.180;2023-03-16T15:25:19;10.73;;;2.47;;
422;SDS011;198;48.752;9.180;2023-03-16T15:27:59;2.40;;;1.50;;
422;SDS011;198;48.752;9.180;2023-03-16T15:30:26;2.93;;;1.63;;
422;SDS011;198;48.752;9.180;2023-03-16T15:32:52;2.30;;;1.80;;
422;SDS011;198;48.752;9.180;2023-03-16T15:35:18;2.90;;;1.97;;
422;SDS011;198;48.752;9.180;2023-03-16T15:37:44;3.10;;;1.87;;
422;SDS011;198;48.752;9.180;2023-03-16T15:40:18;1.67;;;1.50;;
422;SDS011;198;48.752;9.180;2023-03-16T15:42:49;7.10;;;1.10;;
422;SDS011;198;48.752;9.180;2023-03-16T15:45:17;3.93;;;2.57;;
422;SDS011;198;48.752;9.180;2023-03-16T15:47:46;3.17;;;2.10;;
422;SDS011;198;48.752;9.180;2023-03-16T15:50:13;3.77;;;1.73;;
422;SDS011;198;48.752;9.180;2023-03-16T15:52:40;15.87;;;2.43;;
422;SDS011;198;48.752;9.180;2023-03-16T15:55:13;3.30;;;2.23;;
422;SDS011;198;48.752;9.180;2023-03-16T15:57:44;3.03;;;1.83;;
422;SDS011;198;48.752;9.180;2023-03-16T16:00:33;2.33;;;1.70;;
422;SDS011;198;48.752;9.180;2023-03-16T16:03:02;1.80;;;1.77;;
422;SDS011;198;48.752;9.180;2023-03-16T16:05:29;2.60;;;2.17;;
422;SDS011;198;48.752;9.180;2023-03-16T16:07:55;6.00;;;2.20;;
422;SDS011;198;48.752;9.180;2023-03-16T16:10:21;4.57;;;2.10;;
422;SDS011;198;48.752;9.180;2023-03-16T16:12:48;1.90;;;1.77;;
422;SDS011;198;48.752;9.180;2023-03-16T16:15:16;5.53;;;1.87;;
422;SDS011;198;48.752;9.180;2023-03-16T16:17:45;4.33;;;2.00;;
422;SDS011;198;48.752;9.180;2023-03-16T16:20:20;5.87;;;1.87;;
422;SDS011;198;48.752;9.180;2023-03-16T16:22:51;4.90;;;2.20;;
422;SDS011;198;48.752;9.180;2023-03-16T16:25:20;4.53;;;2.10;;
422;SDS011;198;48.752;9.180;2023-03-16T16:27:48;4.97;;;1.67;;
422;SDS011;198;48.752;9.180;2023-03-16T16:30:24;5.20;;;2.23;;
422;SDS011;198;48.752;9.180;2023-03-16T16:32:52;3.43;;;2.27;;
422;SDS011;198;48.752;9.180;2023-03-16T16:35:19;3.03;;;1.83;;
422;SDS011;198;48.752;9.180;2023-03-16T16:37:46;2.17;;;1.90;;
422;SDS011;198;48.752;9.180;2023-03-16T16:40:13;4.37;;;1.97;;
422;SDS011;198;48.752;9.180;2023-03-16T16:42:47;2.60;;;2.03;;
422;SDS011;198;48.752;9.180;2023-03-16T16:45:16;2.27;;;1.70;;